首页
METAR-TAF:

METAR-TAF

机场 :

Homer, 阿拉斯加州, 美国

纬度: 59-39N, 经度: 151-29W, 海拔: 26米

当前天气观测

该预报发布于34分钟前的19:53 UTC
风速10节,风向东南,有时为17节阵风
温度 3°C
湿度 70%
气压 1006 hPa
能見度: 16.1公里
散云层高于3700英尺
多云层高于4700英尺
多云层高于5500英尺

METAR: PAHO 211953Z 13010G17KT 10SM SCT037 BKN047 BKN055 03/M02 A2970 RMK AO2 SLP059 T00331022

时间: 11:27 (20:27 UTC)

预报

该预报发布于2小时和57分钟前的17:30 UTC
预报有效从21日的 18点(UTC)到 22日的 18点(UTC)
风速8节,风向南转南东
能見度: 10公里
少量云层高于4000英尺
从 21日的 2000点(UTC)
风速12节,风向南转南东
能見度: 10公里
阴天层高于4000英尺
附近有阵雨
从 21日的 2300点(UTC)
风速20节,风向南转南东,有时为30节阵风
能見度: 9.7公里
多云层高于2500英尺
阴天层高于3500英尺
小雨
从 22日的 0300点(UTC)
风速20节,风向南转南东,有时为30节阵风
能見度: 6.4公里
阴天层高于1500英尺
小雨, 雪, 轻雾
从 22日的 0900点(UTC)
风速20节,风向南转西南,有时为30节阵风
能見度: 3.2公里
阴天层高于2500英尺
小雪,

TAF: PAHO 211730Z 2118/2218 15008KT P6SM FEW040 FM212000 15012KT P6SM VCSH OVC040 FM212300 15020G30KT 6SM -RA BKN025 OVC035 FM220300 16020G30KT 4SM -RASN BR OVC015 FM220900 21020G30KT 2SM -SN OVC025

超过4000个机场的气象观测和天气预报(METAR&TAF报告)。

可查询的气象台以黄色和红色小点在地图上表示。

将鼠标移到小点上方,可查看气象台名称。

然后点击查看天气观测和预报。

如需切换地图:点击带黑十字的绿色按钮放大地图;点击带横线的绿色按钮缩小地图;或者点击绿色箭头查看邻近地区的地图。


METAR-TAF: